createdAt,value
2023-05-11T00:01:34.077Z,1.50
2023-05-11T00:04:01.386Z,1.40
2023-05-11T00:06:28.847Z,1.20
2023-05-11T00:08:56.110Z,1.20
2023-05-11T00:11:23.884Z,1.30
2023-05-11T00:13:51.274Z,1.30
2023-05-11T00:16:18.317Z,1.50
2023-05-11T00:18:45.710Z,1.60
2023-05-11T00:21:12.911Z,1.50
2023-05-11T00:23:40.124Z,1.40
2023-05-11T00:26:07.278Z,1.60
2023-05-11T00:28:34.270Z,1.50
2023-05-11T00:31:01.639Z,1.50
2023-05-11T00:33:28.826Z,1.30
2023-05-11T00:35:55.969Z,1.70
2023-05-11T00:38:23.019Z,1.80
2023-05-11T00:40:50.478Z,1.70
2023-05-11T00:43:17.628Z,1.70
2023-05-11T00:45:48.179Z,1.80
2023-05-11T00:48:16.273Z,1.50
2023-05-11T00:50:43.506Z,1.70
2023-05-11T00:53:11.734Z,1.60
2023-05-11T00:55:38.933Z,1.70
2023-05-11T00:58:06.306Z,1.70
2023-05-11T01:00:33.579Z,1.40
2023-05-11T01:03:01.109Z,1.10
2023-05-11T01:05:34.584Z,1.60
2023-05-11T01:08:15.663Z,1.70
2023-05-11T01:10:49.718Z,1.70
2023-05-11T01:13:22.906Z,1.60
2023-05-11T01:15:53.998Z,1.20
2023-05-11T01:18:35.224Z,1.50
2023-05-11T01:21:07.188Z,1.80
2023-05-11T01:24:09.010Z,1.30
2023-05-11T01:27:03.903Z,1.20
2023-05-11T01:30:26.112Z,1.30
2023-05-11T01:33:04.322Z,1.20
2023-05-11T01:35:31.608Z,1.30
2023-05-11T01:37:59.805Z,1.30
2023-05-11T01:40:29.278Z,1.40
2023-05-11T01:43:05.139Z,1.30
2023-05-11T01:45:35.009Z,1.40
2023-05-11T01:48:03.874Z,1.10
2023-05-11T01:50:31.098Z,1.60
2023-05-11T01:52:59.062Z,1.50
2023-05-11T01:55:26.427Z,1.10
2023-05-11T01:57:54.199Z,1.40
2023-05-11T02:00:21.657Z,1.50
2023-05-11T02:02:49.211Z,1.30
2023-05-11T02:05:21.403Z,1.40
2023-05-11T02:07:50.729Z,1.20
2023-05-11T02:10:18.790Z,1.30
2023-05-11T02:12:47.045Z,1.30
2023-05-11T02:15:14.500Z,1.10
2023-05-11T02:17:41.618Z,1.10
2023-05-11T02:20:09.434Z,1.30
2023-05-11T02:22:36.533Z,1.30
2023-05-11T02:25:04.763Z,1.30
2023-05-11T02:27:33.247Z,1.40
2023-05-11T02:30:00.540Z,1.10
2023-05-11T02:32:30.088Z,1.20
2023-05-11T02:35:09.444Z,1.40
2023-05-11T02:37:36.599Z,1.30
2023-05-11T02:40:06.831Z,1.20
2023-05-11T02:42:37.183Z,1.30
2023-05-11T02:45:06.093Z,1.40
2023-05-11T02:47:46.587Z,1.30
2023-05-11T02:50:15.691Z,1.00
2023-05-11T02:52:45.308Z,1.00
2023-05-11T02:55:12.595Z,1.40
2023-05-11T02:57:39.886Z,1.50
2023-05-11T03:00:08.847Z,1.00
2023-05-11T03:02:36.233Z,1.80
2023-05-11T03:05:05.260Z,1.10
2023-05-11T03:07:33.270Z,1.50
2023-05-11T03:10:01.564Z,1.00
2023-05-11T03:12:34.120Z,1.40
2023-05-11T03:15:03.340Z,1.50
2023-05-11T03:17:31.292Z,1.00
2023-05-11T03:19:59.058Z,1.10
2023-05-11T03:22:26.209Z,1.20
2023-05-11T03:24:53.277Z,1.20
2023-05-11T03:27:20.426Z,1.10
2023-05-11T03:29:48.465Z,1.50
2023-05-11T03:32:15.884Z,1.50
2023-05-11T03:34:43.092Z,2.10
2023-05-11T03:37:13.237Z,1.30
2023-05-11T03:39:41.776Z,1.30
2023-05-11T03:42:09.173Z,1.30
2023-05-11T03:44:36.523Z,1.10
2023-05-11T03:47:04.455Z,1.20
2023-05-11T03:49:32.322Z,1.30
2023-05-11T03:51:59.521Z,1.20
2023-05-11T03:54:27.078Z,1.40
2023-05-11T03:56:54.157Z,1.30
2023-05-11T03:59:21.353Z,1.30
2023-05-11T04:01:51.755Z,1.50
2023-05-11T04:04:19.893Z,2.20
2023-05-11T04:06:47.500Z,1.30
2023-05-11T04:09:18.283Z,1.60
2023-05-11T04:11:45.605Z,1.30
2023-05-11T04:14:12.828Z,1.20
2023-05-11T04:16:40.020Z,1.10
2023-05-11T04:19:07.719Z,1.40
2023-05-11T04:21:36.236Z,1.20
2023-05-11T04:24:04.421Z,1.20
2023-05-11T04:26:31.621Z,1.20
2023-05-11T04:28:58.932Z,1.20
2023-05-11T04:31:26.003Z,1.20
2023-05-11T04:33:53.538Z,1.10
2023-05-11T04:36:22.515Z,1.00
2023-05-11T04:38:49.756Z,1.20
2023-05-11T04:41:17.119Z,1.10
2023-05-11T04:43:45.281Z,1.10
2023-05-11T04:46:12.613Z,1.10
2023-05-11T04:48:39.849Z,1.00
2023-05-11T04:51:07.158Z,1.00
2023-05-11T04:53:39.313Z,1.20
2023-05-11T04:56:06.774Z,1.60
2023-05-11T04:58:34.007Z,1.30
2023-05-11T05:01:01.714Z,1.50
2023-05-11T05:03:29.100Z,1.40
2023-05-11T05:05:56.293Z,1.70
2023-05-11T05:08:23.716Z,1.30
2023-05-11T05:10:50.903Z,1.10
2023-05-11T05:13:18.056Z,0.90
2023-05-11T05:15:45.223Z,1.20
2023-05-11T05:18:12.419Z,0.70
2023-05-11T05:20:39.932Z,0.80
2023-05-11T05:23:06.980Z,1.00
2023-05-11T05:25:34.420Z,1.10
2023-05-11T05:28:01.488Z,0.80
2023-05-11T05:30:28.755Z,1.10
2023-05-11T05:32:55.908Z,0.70
2023-05-11T05:35:23.020Z,0.90
2023-05-11T05:37:50.269Z,0.90
2023-05-11T05:40:18.343Z,0.80
2023-05-11T05:42:48.559Z,1.00
2023-05-11T05:45:20.319Z,1.30
2023-05-11T05:47:49.341Z,1.20
2023-05-11T05:50:17.443Z,1.00
2023-05-11T05:52:45.541Z,1.30
2023-05-11T05:55:13.358Z,1.10
2023-05-11T05:57:40.776Z,1.20
2023-05-11T06:00:10.885Z,0.80
2023-05-11T06:02:41.688Z,1.00
2023-05-11T06:07:39.716Z,1.00
2023-05-11T06:10:07.173Z,1.30
2023-05-11T06:12:34.462Z,1.20
2023-05-11T06:15:01.889Z,1.40
2023-05-11T06:17:30.103Z,1.30
2023-05-11T06:19:57.520Z,1.30
2023-05-11T06:22:26.412Z,1.10
2023-05-11T06:24:53.709Z,1.00
2023-05-11T06:27:22.041Z,1.30
2023-05-11T06:29:49.311Z,1.20
2023-05-11T06:32:16.983Z,1.40
2023-05-11T06:34:44.053Z,1.40
2023-05-11T06:37:11.252Z,1.30
2023-05-11T06:39:38.406Z,1.00
2023-05-11T06:42:08.373Z,1.10
2023-05-11T06:44:35.781Z,1.20
2023-05-11T06:47:06.071Z,1.10
2023-05-11T06:49:33.359Z,1.10
2023-05-11T06:52:00.516Z,1.20
2023-05-11T06:54:27.960Z,1.30
2023-05-11T06:56:55.110Z,1.10
2023-05-11T06:59:22.156Z,1.50
2023-05-11T07:01:49.205Z,1.10
2023-05-11T07:04:16.404Z,1.10
2023-05-11T07:06:43.509Z,1.10
2023-05-11T07:09:10.557Z,0.90
2023-05-11T07:11:38.127Z,1.30
2023-05-11T07:14:06.097Z,1.50
2023-05-11T07:16:33.317Z,1.00
2023-05-11T07:19:00.577Z,1.40
2023-05-11T07:21:27.775Z,1.30
2023-05-11T07:23:54.882Z,1.20
2023-05-11T07:26:22.372Z,1.10
2023-05-11T07:28:49.530Z,1.10
2023-05-11T07:31:16.560Z,1.50
2023-05-11T07:33:43.689Z,1.60
2023-05-11T07:36:10.834Z,1.40
2023-05-11T07:38:38.041Z,1.60
2023-05-11T07:41:06.863Z,1.40
2023-05-11T07:43:34.640Z,1.70
2023-05-11T07:46:01.696Z,1.20
2023-05-11T07:48:29.221Z,1.20
2023-05-11T07:50:56.301Z,1.30
2023-05-11T07:53:23.335Z,1.00
2023-05-11T07:55:50.599Z,1.10
2023-05-11T07:58:17.849Z,1.10
2023-05-11T08:00:44.894Z,1.40
2023-05-11T08:03:12.123Z,1.10
2023-05-11T08:05:39.524Z,1.00
2023-05-11T08:08:06.653Z,1.20
2023-05-11T08:10:33.800Z,1.40
2023-05-11T08:13:00.849Z,0.80
2023-05-11T08:15:28.304Z,1.10
2023-05-11T08:17:55.809Z,1.30
2023-05-11T08:20:23.880Z,1.20
2023-05-11T08:22:51.103Z,0.70
2023-05-11T08:25:18.631Z,1.10
2023-05-11T08:27:46.145Z,0.90
2023-05-11T08:30:13.795Z,1.20
2023-05-11T08:35:11.110Z,1.30
2023-05-11T08:37:38.292Z,1.10
2023-05-11T08:40:06.113Z,1.00
2023-05-11T08:42:34.241Z,0.80
2023-05-11T08:45:01.821Z,1.00
2023-05-11T08:47:29.279Z,1.00
2023-05-11T08:49:56.800Z,1.00
2023-05-11T08:52:23.977Z,1.10
2023-05-11T08:54:51.227Z,1.00
2023-05-11T08:57:18.382Z,1.40
2023-05-11T08:59:49.197Z,1.10
2023-05-11T09:02:17.642Z,1.00
2023-05-11T09:04:48.057Z,1.10
2023-05-11T09:07:17.870Z,1.20
2023-05-11T09:09:46.235Z,1.00
2023-05-11T09:12:13.891Z,1.50
2023-05-11T09:14:41.126Z,1.00
2023-05-11T09:17:08.388Z,1.00
2023-05-11T09:19:35.510Z,1.30
2023-05-11T09:22:02.534Z,1.60
2023-05-11T09:24:29.767Z,1.30
2023-05-11T09:27:09.617Z,0.90
2023-05-11T09:29:36.698Z,1.00
2023-05-11T09:32:05.008Z,0.90
2023-05-11T09:34:32.138Z,0.90
2023-05-11T09:36:59.310Z,1.20
2023-05-11T09:39:44.719Z,0.90
2023-05-11T09:42:24.404Z,0.80
2023-05-11T09:44:53.391Z,0.70
2023-05-11T09:47:22.667Z,0.70
2023-05-11T09:49:50.280Z,0.80
2023-05-11T09:52:58.394Z,0.90
2023-05-11T09:55:26.085Z,0.70
2023-05-11T09:57:55.449Z,0.80
2023-05-11T10:00:22.572Z,1.00
2023-05-11T10:03:00.667Z,1.20
2023-05-11T10:05:28.177Z,0.60
2023-05-11T10:08:02.885Z,0.80
2023-05-11T10:10:31.674Z,1.00
2023-05-11T10:13:00.061Z,1.00
2023-05-11T10:15:30.787Z,1.20
2023-05-11T10:17:59.926Z,1.00
2023-05-11T10:20:27.440Z,1.00
2023-05-11T10:22:56.512Z,0.80
2023-05-11T10:25:24.088Z,0.80
2023-05-11T10:27:51.847Z,1.10
2023-05-11T10:30:19.576Z,1.10
2023-05-11T10:32:50.271Z,1.40
2023-05-11T10:35:17.389Z,1.20
2023-05-11T10:37:45.032Z,0.80
2023-05-11T10:40:12.341Z,1.00
2023-05-11T10:42:45.513Z,1.10
2023-05-11T10:45:24.242Z,1.00
2023-05-11T10:48:00.269Z,1.20
2023-05-11T10:50:48.520Z,1.30
2023-05-11T10:53:34.536Z,1.10
2023-05-11T10:56:18.042Z,0.90
2023-05-11T10:59:03.993Z,1.00
2023-05-11T11:01:41.003Z,1.30
2023-05-11T11:04:09.906Z,1.50
2023-05-11T11:06:43.803Z,1.20
2023-05-11T11:09:16.231Z,1.10
2023-05-11T11:11:46.541Z,0.80
2023-05-11T11:14:14.885Z,1.20
2023-05-11T11:17:17.366Z,0.90
2023-05-11T11:19:44.526Z,1.30
2023-05-11T11:22:38.260Z,1.10
2023-05-11T11:25:12.114Z,1.10
2023-05-11T11:27:45.299Z,1.30
2023-05-11T11:30:19.703Z,0.90
2023-05-11T11:32:48.430Z,0.70
2023-05-11T11:35:41.866Z,0.90
2023-05-11T11:38:10.843Z,0.90
2023-05-11T11:40:47.214Z,0.70
2023-05-11T11:43:22.383Z,1.20
2023-05-11T11:45:56.809Z,1.10
2023-05-11T11:48:35.515Z,1.00
2023-05-11T11:51:06.379Z,1.00
2023-05-11T11:53:36.698Z,4.40
2023-05-11T11:56:24.113Z,1.00
2023-05-11T11:58:51.780Z,0.90
2023-05-11T12:01:23.814Z,1.00
2023-05-11T12:04:14.228Z,1.50
2023-05-11T12:06:43.167Z,2.10
2023-05-11T12:09:10.672Z,1.60
2023-05-11T12:11:37.959Z,1.00
2023-05-11T12:14:05.065Z,1.00
2023-05-11T12:16:32.482Z,1.50
2023-05-11T12:19:01.900Z,1.00
2023-05-11T12:21:31.799Z,1.60
2023-05-11T12:24:03.160Z,1.10
2023-05-11T12:26:31.130Z,1.40
2023-05-11T12:29:08.578Z,1.10
2023-05-11T12:31:36.943Z,1.10
2023-05-11T12:34:04.174Z,1.00
2023-05-11T12:36:32.143Z,0.90
2023-05-11T12:38:59.317Z,1.00
2023-05-11T12:41:27.465Z,1.10
2023-05-11T12:43:54.838Z,1.10
2023-05-11T12:46:22.525Z,0.90
2023-05-11T12:48:50.753Z,1.50
2023-05-11T12:52:01.354Z,2.60
2023-05-11T12:54:28.402Z,1.40
2023-05-11T12:56:55.665Z,1.10
2023-05-11T12:59:33.497Z,0.80
2023-05-11T13:02:08.370Z,1.00
2023-05-11T13:04:35.622Z,0.70
2023-05-11T13:07:03.590Z,0.80
2023-05-11T13:09:30.751Z,1.90
2023-05-11T13:12:13.684Z,1.30
2023-05-11T13:14:40.903Z,1.30
2023-05-11T13:17:08.668Z,1.20
2023-05-11T13:19:37.866Z,0.70
2023-05-11T13:22:05.755Z,1.20
2023-05-11T13:24:34.437Z,1.30
2023-05-11T13:27:02.085Z,1.10
2023-05-11T13:29:29.135Z,0.80
2023-05-11T13:31:56.320Z,0.70
2023-05-11T13:34:23.636Z,0.90
2023-05-11T13:36:50.997Z,0.80
2023-05-11T13:39:18.252Z,1.00
2023-05-11T13:41:46.431Z,0.80
2023-05-11T13:44:13.524Z,0.80
2023-05-11T13:46:40.790Z,0.90
2023-05-11T13:49:08.821Z,0.70
2023-05-11T13:51:36.070Z,0.90
2023-05-11T13:54:03.685Z,0.90
2023-05-11T13:56:31.769Z,0.60
2023-05-11T13:59:00.094Z,0.70
2023-05-11T14:01:27.872Z,0.80
2023-05-11T14:03:56.231Z,0.90
2023-05-11T14:06:24.373Z,1.30
2023-05-11T14:08:51.940Z,1.00
2023-05-11T14:11:19.075Z,0.90
2023-05-11T14:13:46.227Z,0.90
2023-05-11T14:16:13.673Z,0.90
2023-05-11T14:18:41.211Z,0.90
2023-05-11T14:21:08.495Z,0.80
2023-05-11T14:23:37.603Z,1.10
2023-05-11T14:26:06.817Z,0.70
2023-05-11T14:28:34.164Z,0.80
2023-05-11T14:31:01.517Z,0.90
2023-05-11T14:33:28.650Z,1.30
2023-05-11T14:35:56.020Z,0.60
2023-05-11T14:38:23.330Z,1.20
2023-05-11T14:40:52.411Z,0.90
2023-05-11T14:43:19.740Z,0.80
2023-05-11T14:45:46.856Z,0.90
2023-05-11T14:48:14.163Z,1.10
2023-05-11T14:50:43.315Z,0.90
2023-05-11T14:53:10.548Z,0.90
2023-05-11T14:55:38.023Z,0.80
2023-05-11T14:58:07.938Z,1.00
2023-05-11T15:00:41.838Z,0.80
2023-05-11T15:03:10.842Z,1.10
2023-05-11T15:05:38.562Z,1.20
2023-05-11T15:08:12.756Z,0.90
2023-05-11T15:10:46.004Z,0.80
2023-05-11T15:13:14.796Z,1.00
2023-05-11T15:15:42.181Z,1.20
2023-05-11T15:18:09.386Z,1.00
2023-05-11T15:20:38.826Z,0.80
2023-05-11T15:23:09.747Z,0.70
2023-05-11T15:25:37.113Z,1.10
2023-05-11T15:28:04.272Z,1.10
2023-05-11T15:30:32.706Z,0.90
2023-05-11T15:33:00.338Z,0.90
2023-05-11T15:35:27.651Z,1.00
2023-05-11T15:37:54.753Z,1.50
2023-05-11T15:40:21.908Z,1.90
2023-05-11T15:42:49.094Z,1.30
2023-05-11T15:45:16.524Z,1.50
2023-05-11T15:47:43.924Z,1.40
2023-05-11T15:50:11.049Z,1.10
2023-05-11T15:52:38.105Z,1.70
2023-05-11T15:55:05.863Z,1.20
2023-05-11T15:57:33.625Z,1.50
2023-05-11T16:00:00.720Z,1.20
2023-05-11T16:02:27.876Z,1.30
2023-05-11T16:04:55.440Z,1.00
2023-05-11T16:07:22.643Z,1.30
2023-05-11T16:09:49.785Z,1.10
2023-05-11T16:12:16.846Z,1.10
2023-05-11T16:14:44.081Z,1.00
2023-05-11T16:17:11.301Z,0.90
2023-05-11T16:19:38.542Z,1.30
2023-05-11T16:22:05.632Z,1.10
2023-05-11T16:24:34.483Z,1.20
2023-05-11T16:27:02.106Z,1.30
2023-05-11T16:29:29.244Z,1.20
2023-05-11T16:31:56.785Z,1.40
2023-05-11T16:34:24.285Z,1.10
2023-05-11T16:36:51.413Z,2.30
2023-05-11T16:39:18.557Z,1.90
2023-05-11T16:41:45.698Z,1.80
2023-05-11T16:44:13.587Z,1.30
2023-05-11T16:46:40.843Z,1.60
2023-05-11T16:49:07.998Z,1.10
2023-05-11T16:51:35.139Z,1.40
2023-05-11T16:54:02.374Z,1.40
2023-05-11T16:56:29.643Z,1.60
2023-05-11T16:58:56.734Z,1.30
2023-05-11T17:01:23.838Z,1.20
2023-05-11T17:03:51.438Z,1.60
2023-05-11T17:06:20.941Z,2.00
2023-05-11T17:08:48.242Z,2.10
2023-05-11T17:11:15.402Z,1.50
2023-05-11T17:13:42.451Z,1.70
2023-05-11T17:16:09.584Z,1.40
2023-05-11T17:18:36.919Z,1.40
2023-05-11T17:21:04.424Z,1.40
2023-05-11T17:23:31.767Z,1.20
2023-05-11T17:25:59.626Z,1.40
2023-05-11T17:28:27.322Z,1.10
2023-05-11T17:30:54.390Z,1.00
2023-05-11T17:33:21.644Z,1.20
2023-05-11T17:35:50.720Z,1.40
2023-05-11T17:38:18.048Z,1.20
2023-05-11T17:40:45.390Z,1.10
2023-05-11T17:43:12.983Z,1.20
2023-05-11T17:45:40.109Z,1.10
2023-05-11T17:48:07.273Z,1.30
2023-05-11T17:50:36.703Z,1.30
2023-05-11T17:53:03.784Z,1.60
2023-05-11T17:55:31.580Z,1.30
2023-05-11T17:57:59.032Z,1.40
2023-05-11T18:00:27.961Z,1.40
2023-05-11T18:02:55.454Z,2.00
2023-05-11T18:05:28.161Z,1.70
2023-05-11T18:08:02.948Z,2.10
2023-05-11T18:10:30.340Z,2.00
2023-05-11T18:12:57.299Z,2.00
2023-05-11T18:15:24.435Z,1.70
2023-05-11T18:17:51.793Z,1.40
2023-05-11T18:20:19.137Z,1.70
2023-05-11T18:22:47.120Z,1.70
2023-05-11T18:25:15.383Z,1.90
2023-05-11T18:27:42.440Z,2.30
2023-05-11T18:30:10.587Z,2.00
2023-05-11T18:32:37.692Z,2.10
2023-05-11T18:35:06.070Z,2.30
2023-05-11T18:37:35.624Z,2.40
2023-05-11T18:40:06.563Z,2.10
2023-05-11T18:42:36.840Z,2.70
2023-05-11T18:45:04.598Z,2.60
2023-05-11T18:47:36.544Z,2.50
2023-05-11T18:50:04.609Z,1.60
2023-05-11T18:52:31.654Z,2.50
2023-05-11T18:55:00.303Z,1.90
2023-05-11T18:57:29.819Z,1.70
2023-05-11T18:59:57.405Z,1.70
2023-05-11T19:02:24.672Z,1.50
2023-05-11T19:04:51.726Z,1.70
2023-05-11T19:07:20.287Z,1.50
2023-05-11T19:09:47.925Z,1.30
2023-05-11T19:12:15.403Z,1.40
2023-05-11T19:14:42.555Z,1.50
2023-05-11T19:17:09.755Z,1.30
2023-05-11T19:19:36.956Z,1.30
2023-05-11T19:22:05.145Z,1.40
2023-05-11T19:24:33.510Z,1.60
2023-05-11T19:27:07.406Z,1.30
2023-05-11T19:29:35.658Z,1.50
2023-05-11T19:32:03.293Z,1.30
2023-05-11T19:34:30.504Z,1.50
2023-05-11T19:36:57.659Z,1.50
2023-05-11T19:39:24.860Z,1.80
2023-05-11T19:41:52.175Z,1.40
2023-05-11T19:44:19.306Z,2.10
2023-05-11T19:46:47.441Z,1.30
2023-05-11T19:49:15.467Z,1.50
2023-05-11T19:51:43.194Z,1.50
2023-05-11T19:54:11.186Z,1.50
2023-05-11T19:56:38.641Z,1.60
2023-05-11T19:59:05.902Z,1.50
2023-05-11T20:01:33.176Z,1.40
2023-05-11T20:04:01.171Z,1.50
2023-05-11T20:06:28.582Z,1.50
2023-05-11T20:08:56.676Z,1.30
2023-05-11T20:11:25.456Z,1.40
2023-05-11T20:13:53.868Z,1.70
2023-05-11T20:16:21.179Z,1.40
2023-05-11T20:18:48.369Z,1.40
2023-05-11T20:21:16.128Z,1.50
2023-05-11T20:23:44.344Z,1.40
2023-05-11T20:34:14.349Z,1.40
2023-05-11T20:36:41.440Z,1.70
2023-05-11T20:39:09.463Z,1.80
2023-05-11T20:41:36.616Z,1.50
2023-05-11T20:44:04.179Z,1.50
2023-05-11T20:46:31.227Z,1.70
2023-05-11T20:48:58.363Z,1.60
2023-05-11T20:51:25.841Z,1.60
2023-05-11T20:53:53.939Z,1.80
2023-05-11T20:56:21.650Z,1.70
2023-05-11T20:58:48.619Z,1.70
2023-05-11T21:02:17.198Z,1.70
2023-05-11T21:04:44.916Z,1.50
2023-05-11T21:07:12.464Z,1.70
2023-05-11T21:09:39.612Z,2.20
2023-05-11T21:12:07.873Z,1.60
2023-05-11T21:14:34.989Z,1.60
2023-05-11T21:17:02.281Z,1.50
2023-05-11T21:19:29.575Z,1.60
2023-05-11T21:21:56.597Z,1.40
2023-05-11T21:24:23.947Z,1.30
2023-05-11T21:26:51.300Z,1.30
2023-05-11T21:29:18.448Z,1.40
2023-05-11T21:31:45.606Z,1.40
2023-05-11T21:34:12.974Z,1.20
2023-05-11T21:36:41.563Z,1.60
2023-05-11T21:39:08.687Z,1.50
2023-05-11T21:41:35.789Z,1.30
2023-05-11T21:44:02.753Z,1.40
2023-05-11T21:46:30.607Z,1.40
2023-05-11T21:48:57.802Z,1.10
2023-05-11T21:51:24.877Z,1.60
2023-05-11T21:53:52.136Z,1.20
2023-05-11T21:56:19.263Z,1.50
2023-05-11T21:58:46.329Z,1.40
2023-05-11T22:01:14.167Z,1.60
2023-05-11T22:03:41.398Z,1.50
2023-05-11T22:06:08.618Z,1.40
2023-05-11T22:08:36.081Z,1.20
2023-05-11T22:11:04.332Z,1.20
2023-05-11T22:13:31.472Z,1.50
2023-05-11T22:15:58.559Z,1.80
2023-05-11T22:18:25.851Z,1.40
2023-05-11T22:20:53.010Z,1.20
2023-05-11T22:23:20.168Z,1.80
2023-05-11T22:25:47.306Z,1.80
2023-05-11T22:28:14.421Z,1.50
2023-05-11T22:30:41.501Z,2.40
2023-05-11T22:33:08.654Z,1.60
2023-05-11T22:35:35.732Z,1.80
2023-05-11T22:38:02.975Z,2.10
2023-05-11T22:40:30.145Z,2.30
2023-05-11T22:42:57.263Z,3.00
2023-05-11T22:45:24.407Z,3.50
2023-05-11T22:47:51.471Z,3.30
2023-05-11T22:50:18.785Z,2.90
2023-05-11T22:52:47.515Z,2.80
2023-05-11T22:55:14.652Z,2.90
2023-05-11T22:57:41.787Z,2.70
2023-05-11T23:00:12.233Z,3.20
2023-05-11T23:02:39.503Z,2.30
2023-05-11T23:05:07.390Z,2.20
2023-05-11T23:07:34.725Z,2.80
2023-05-11T23:10:01.804Z,3.00
2023-05-11T23:12:28.929Z,2.50
2023-05-11T23:14:56.957Z,2.70
2023-05-11T23:17:24.209Z,3.10
2023-05-11T23:19:51.360Z,2.70
2023-05-11T23:22:18.448Z,2.70
2023-05-11T23:24:45.658Z,2.20
2023-05-11T23:27:12.711Z,2.70
2023-05-11T23:29:40.692Z,2.90
2023-05-11T23:32:07.728Z,2.60
2023-05-11T23:34:34.958Z,2.40
2023-05-11T23:37:02.092Z,2.90
2023-05-11T23:39:29.357Z,3.00
2023-05-11T23:41:56.354Z,2.70
2023-05-11T23:44:23.488Z,3.20
2023-05-11T23:46:50.680Z,3.10
2023-05-11T23:49:17.978Z,3.30
2023-05-11T23:51:45.137Z,3.10
2023-05-11T23:54:12.129Z,3.20
2023-05-11T23:56:39.166Z,2.40
2023-05-11T23:59:06.284Z,2.60
